createdAt,value
2016-08-26T00:00:42.738Z,22.28
2016-08-26T00:01:41.899Z,22.13
2016-08-26T00:02:41.910Z,22.23
2016-08-26T00:03:41.905Z,22.2
2016-08-26T00:04:41.910Z,22.14
2016-08-26T00:05:41.899Z,22.14
2016-08-26T00:06:41.904Z,22.15
2016-08-26T00:07:41.908Z,22.1
2016-08-26T00:08:41.910Z,22.06
2016-08-26T00:09:41.920Z,22.07
2016-08-26T00:10:48.186Z,21.99
2016-08-26T00:11:41.926Z,21.93
2016-08-26T00:12:41.926Z,21.96
2016-08-26T00:13:41.924Z,21.92
2016-08-26T00:14:41.930Z,21.91
2016-08-26T00:15:41.940Z,21.93
2016-08-26T00:16:41.938Z,21.89
2016-08-26T00:17:41.942Z,21.8
2016-08-26T00:18:41.941Z,21.82
2016-08-26T00:19:41.953Z,21.82
2016-08-26T00:20:41.955Z,21.73
2016-08-26T00:21:41.953Z,21.67
2016-08-26T00:22:41.957Z,21.76
2016-08-26T00:23:41.978Z,21.72
2016-08-26T00:24:41.966Z,21.72
2016-08-26T00:25:41.967Z,21.72
2016-08-26T00:26:41.980Z,21.69
2016-08-26T00:27:41.973Z,21.62
2016-08-26T00:28:41.975Z,21.61
2016-08-26T00:29:41.987Z,21.6
2016-08-26T00:30:41.992Z,21.57
2016-08-26T00:31:41.987Z,21.54
2016-08-26T00:32:41.998Z,21.48
2016-08-26T00:33:41.991Z,21.48
2016-08-26T00:34:41.998Z,21.51
2016-08-26T00:35:42.003Z,21.52
2016-08-26T00:36:42.005Z,21.45
2016-08-26T00:37:42.020Z,21.45
2016-08-26T00:38:42.010Z,21.42
2016-08-26T00:39:42.720Z,21.42
2016-08-26T00:40:42.022Z,21.45
2016-08-26T00:41:42.027Z,21.48
2016-08-26T00:42:42.023Z,21.36
2016-08-26T00:43:42.023Z,21.37
2016-08-26T00:44:42.034Z,21.52
2016-08-26T00:45:42.046Z,21.37
2016-08-26T00:46:42.039Z,21.39
2016-08-26T00:47:42.048Z,21.42
2016-08-26T00:48:42.040Z,21.39
2016-08-26T00:49:42.047Z,21.4
2016-08-26T00:50:42.048Z,21.35
2016-08-26T00:51:42.758Z,21.33
2016-08-26T00:52:42.062Z,21.43
2016-08-26T00:53:42.062Z,21.3
2016-08-26T00:54:42.110Z,21.3
2016-08-26T00:55:42.068Z,21.24
2016-08-26T00:56:42.064Z,21.36
2016-08-26T00:57:42.071Z,21.25
2016-08-26T00:58:42.081Z,21.22
2016-08-26T00:59:42.081Z,21.2
2016-08-26T01:00:42.135Z,21.25
2016-08-26T01:01:42.081Z,21.22
2016-08-26T01:02:42.091Z,21.3
2016-08-26T01:03:42.101Z,21.32
2016-08-26T01:04:42.093Z,21.21
2016-08-26T01:05:42.096Z,21.25
2016-08-26T01:06:42.096Z,21.25
2016-08-26T01:07:42.105Z,21.25
2016-08-26T01:08:42.119Z,21.24
2016-08-26T01:09:42.109Z,21.25
2016-08-26T01:10:42.133Z,21.18
2016-08-26T01:11:42.115Z,21.29
2016-08-26T01:12:42.127Z,21.18
2016-08-26T01:13:42.833Z,21.24
2016-08-26T01:14:42.133Z,21.24
2016-08-26T01:15:42.834Z,21.25
2016-08-26T01:16:42.129Z,21.22
2016-08-26T01:17:42.135Z,21.24
2016-08-26T01:18:42.138Z,21.21
2016-08-26T01:19:42.146Z,21.24
2016-08-26T01:20:42.851Z,21.25
2016-08-26T01:21:42.143Z,21.25
2016-08-26T01:22:42.149Z,21.21
2016-08-26T01:23:42.154Z,21.21
2016-08-26T01:24:42.155Z,21.17
2016-08-26T01:25:42.159Z,21.22
2016-08-26T01:26:42.159Z,21.09
2016-08-26T01:27:42.163Z,21.21
2016-08-26T01:28:42.173Z,21.15
2016-08-26T01:29:42.173Z,21.15
2016-08-26T01:30:42.175Z,21.15
2016-08-26T01:31:42.172Z,21.06
2016-08-26T01:32:42.178Z,21.09
2016-08-26T01:33:42.197Z,21.07
2016-08-26T01:34:42.185Z,21.09
2016-08-26T01:35:42.187Z,21.14
2016-08-26T01:36:42.197Z,21.09
2016-08-26T01:37:42.203Z,21.11
2016-08-26T01:38:42.201Z,21.03
2016-08-26T01:39:42.201Z,20.96
2016-08-26T01:40:42.202Z,21.03
2016-08-26T01:41:42.222Z,21.03
2016-08-26T01:42:42.216Z,21.06
2016-08-26T01:43:42.214Z,21.09
2016-08-26T01:44:42.215Z,21.03
2016-08-26T01:45:42.219Z,21.06
2016-08-26T01:46:42.218Z,21.05
2016-08-26T01:47:42.223Z,20.96
2016-08-26T01:48:42.225Z,20.95
2016-08-26T01:49:42.228Z,20.96
2016-08-26T01:50:42.231Z,20.95
2016-08-26T01:51:42.233Z,20.99
2016-08-26T01:52:42.237Z,20.88
2016-08-26T01:53:42.243Z,20.97
2016-08-26T01:54:42.241Z,20.87
2016-08-26T01:55:42.358Z,20.93
2016-08-26T01:56:42.249Z,20.9
2016-08-26T01:57:42.267Z,20.9
2016-08-26T01:58:42.282Z,20.95
2016-08-26T01:59:42.280Z,20.88
2016-08-26T02:00:42.410Z,20.96
2016-08-26T02:01:42.270Z,20.82
2016-08-26T02:02:42.271Z,20.93
2016-08-26T02:03:42.281Z,20.85
2016-08-26T02:04:42.280Z,20.9
2016-08-26T02:05:42.283Z,20.9
2016-08-26T02:06:42.286Z,20.87
2016-08-26T02:07:42.284Z,20.82
2016-08-26T02:08:42.288Z,20.85
2016-08-26T02:09:42.291Z,20.88
2016-08-26T02:10:42.297Z,20.93
2016-08-26T02:11:42.288Z,20.87
2016-08-26T02:12:42.295Z,20.8
2016-08-26T02:13:42.299Z,20.88
2016-08-26T02:14:42.305Z,20.84
2016-08-26T02:15:42.304Z,20.92
2016-08-26T02:16:42.306Z,20.85
2016-08-26T02:17:42.314Z,20.81
2016-08-26T02:18:43.019Z,20.84
2016-08-26T02:19:42.317Z,20.93
2016-08-26T02:20:42.321Z,20.84
2016-08-26T02:21:42.338Z,20.87
2016-08-26T02:22:42.349Z,20.93
2016-08-26T02:23:42.337Z,20.92
2016-08-26T02:24:42.345Z,20.95
2016-08-26T02:25:42.340Z,20.92
2016-08-26T02:26:42.339Z,20.96
2016-08-26T02:27:42.346Z,21.06
2016-08-26T02:28:42.359Z,21.06
2016-08-26T02:29:42.348Z,21.06
2016-08-26T02:30:42.356Z,21.02
2016-08-26T02:31:42.360Z,21
2016-08-26T02:32:42.360Z,20.96
2016-08-26T02:33:42.365Z,20.97
2016-08-26T02:34:42.361Z,20.96
2016-08-26T02:35:42.399Z,20.88
2016-08-26T02:36:42.363Z,20.84
2016-08-26T02:37:42.369Z,20.85
2016-08-26T02:38:42.372Z,20.84
2016-08-26T02:39:42.373Z,20.87
2016-08-26T02:40:42.379Z,20.82
2016-08-26T02:41:42.376Z,20.84
2016-08-26T02:42:42.380Z,20.81
2016-08-26T02:43:43.097Z,20.72
2016-08-26T02:44:42.388Z,20.67
2016-08-26T02:45:42.394Z,20.78
2016-08-26T02:46:42.396Z,20.72
2016-08-26T02:47:42.399Z,20.72
2016-08-26T02:48:42.402Z,20.67
2016-08-26T02:49:42.405Z,20.67
2016-08-26T02:50:42.405Z,20.77
2016-08-26T02:51:42.404Z,20.74
2016-08-26T02:52:42.411Z,20.72
2016-08-26T02:53:42.411Z,20.63
2016-08-26T02:54:42.413Z,20.65
2016-08-26T02:55:42.432Z,20.67
2016-08-26T02:56:42.424Z,20.63
2016-08-26T02:57:42.438Z,20.66
2016-08-26T02:58:42.432Z,20.67
2016-08-26T02:59:42.431Z,20.69
2016-08-26T03:00:42.478Z,20.65
2016-08-26T03:01:42.431Z,20.66
2016-08-26T03:02:42.435Z,20.63
2016-08-26T03:03:43.150Z,20.65
2016-08-26T03:04:42.440Z,20.63
2016-08-26T03:05:42.443Z,20.59
2016-08-26T03:06:42.442Z,20.6
2016-08-26T03:07:42.444Z,20.59
2016-08-26T03:08:42.448Z,20.52
2016-08-26T03:09:42.460Z,20.52
2016-08-26T03:10:42.537Z,20.56
2016-08-26T03:11:42.465Z,20.55
2016-08-26T03:12:43.169Z,20.43
2016-08-26T03:13:42.461Z,20.47
2016-08-26T03:14:42.463Z,20.41
2016-08-26T03:15:42.465Z,20.39
2016-08-26T03:16:42.469Z,20.32
2016-08-26T03:17:42.471Z,20.36
2016-08-26T03:18:42.479Z,20.34
2016-08-26T03:19:42.484Z,20.36
2016-08-26T03:20:42.578Z,20.34
2016-08-26T03:21:42.482Z,20.34
2016-08-26T03:22:42.487Z,20.36
2016-08-26T03:23:42.488Z,20.32
2016-08-26T03:24:42.494Z,20.36
2016-08-26T03:25:42.500Z,20.4
2016-08-26T03:26:43.202Z,20.36
2016-08-26T03:27:42.498Z,20.4
2016-08-26T03:28:42.506Z,20.43
2016-08-26T03:29:42.504Z,20.36
2016-08-26T03:30:42.528Z,20.34
2016-08-26T03:31:42.506Z,20.36
2016-08-26T03:32:42.511Z,20.36
2016-08-26T03:33:42.512Z,20.34
2016-08-26T03:34:42.517Z,20.32
2016-08-26T03:35:42.534Z,20.34
2016-08-26T03:36:42.528Z,20.32
2016-08-26T03:37:42.549Z,20.36
2016-08-26T03:38:42.531Z,20.39
2016-08-26T03:39:42.531Z,20.41
2016-08-26T03:40:42.534Z,20.43
2016-08-26T03:41:42.533Z,20.43
2016-08-26T03:42:42.535Z,20.39
2016-08-26T03:43:42.538Z,20.34
2016-08-26T03:44:42.540Z,20.34
2016-08-26T03:45:42.544Z,20.37
2016-08-26T03:46:42.545Z,20.29
2016-08-26T03:47:42.556Z,20.28
2016-08-26T03:48:42.549Z,20.29
2016-08-26T03:49:42.554Z,20.26
2016-08-26T03:50:42.558Z,20.34
2016-08-26T03:51:42.563Z,20.29
2016-08-26T03:52:42.564Z,20.34
2016-08-26T03:53:42.563Z,20.28
2016-08-26T03:54:42.565Z,20.24
2016-08-26T03:55:42.571Z,20.16
2016-08-26T03:56:42.571Z,20.21
2016-08-26T03:57:42.586Z,20.26
2016-08-26T03:58:42.588Z,20.22
2016-08-26T03:59:42.588Z,20.21
2016-08-26T04:00:42.637Z,20.24
2016-08-26T04:01:42.598Z,20.26
2016-08-26T04:02:42.589Z,20.21
2016-08-26T04:03:42.600Z,20.21
2016-08-26T04:04:42.605Z,20.19
2016-08-26T04:05:42.604Z,20.25
2016-08-26T04:06:42.608Z,20.19
2016-08-26T04:07:42.605Z,20.14
2016-08-26T04:08:42.625Z,20.13
2016-08-26T04:09:43.331Z,20.14
2016-08-26T04:10:42.608Z,20.04
2016-08-26T04:11:42.608Z,20.16
2016-08-26T04:12:42.610Z,20.09
2016-08-26T04:13:42.619Z,20.04
2016-08-26T04:14:43.334Z,20.06
2016-08-26T04:15:42.627Z,20
2016-08-26T04:16:42.625Z,20.02
2016-08-26T04:17:42.630Z,20.06
2016-08-26T04:18:42.630Z,20.13
2016-08-26T04:19:42.641Z,20.13
2016-08-26T04:20:42.640Z,20.03
2016-08-26T04:21:42.637Z,20.09
2016-08-26T04:22:42.635Z,20
2016-08-26T04:23:42.646Z,20.06
2016-08-26T04:24:42.645Z,20.03
2016-08-26T04:25:42.650Z,20.14
2016-08-26T04:26:42.648Z,20.07
2016-08-26T04:27:42.652Z,20.03
2016-08-26T04:28:42.666Z,20.07
2016-08-26T04:29:42.656Z,20.06
2016-08-26T04:30:42.697Z,20.04
2016-08-26T04:31:42.659Z,20.07
2016-08-26T04:32:42.660Z,20.07
2016-08-26T04:33:42.662Z,20.07
2016-08-26T04:34:42.669Z,20.02
2016-08-26T04:35:42.710Z,20.09
2016-08-26T04:36:42.692Z,20.07
2016-08-26T04:37:42.671Z,20.03
2016-08-26T04:38:42.681Z,20.06
2016-08-26T04:39:42.684Z,20.06
2016-08-26T04:40:42.679Z,20.02
2016-08-26T04:41:42.690Z,20.03
2016-08-26T04:42:42.687Z,20.04
2016-08-26T04:43:42.695Z,20.04
2016-08-26T04:44:43.402Z,20.04
2016-08-26T04:45:42.695Z,20.02
2016-08-26T04:46:42.698Z,19.99
2016-08-26T04:47:42.701Z,20.06
2016-08-26T04:48:42.697Z,20.06
2016-08-26T04:49:42.716Z,20.04
2016-08-26T04:50:42.706Z,20.03
2016-08-26T04:51:42.719Z,20.13
2016-08-26T04:52:42.722Z,20.06
2016-08-26T04:53:42.722Z,20.06
2016-08-26T04:54:42.725Z,20.03
2016-08-26T04:55:42.725Z,20.07
2016-08-26T04:56:43.424Z,20.09
2016-08-26T04:57:42.725Z,20.03
2016-08-26T04:58:42.727Z,20.07
2016-08-26T04:59:42.728Z,20.14
2016-08-26T05:00:42.785Z,20.19
2016-08-26T05:01:42.731Z,20.28
2016-08-26T05:02:42.743Z,20.36
2016-08-26T05:03:42.746Z,20.52
2016-08-26T05:04:42.741Z,20.84
2016-08-26T05:05:42.746Z,21.02
2016-08-26T05:06:42.745Z,21.21
2016-08-26T05:07:42.749Z,21.5
2016-08-26T05:08:42.750Z,21.62
2016-08-26T05:09:42.761Z,21.88
2016-08-26T05:10:42.764Z,22.17
2016-08-26T05:11:42.783Z,22.29
2016-08-26T05:12:42.764Z,22.3
2016-08-26T05:13:42.774Z,22.2
2016-08-26T05:14:42.786Z,22.22
2016-08-26T05:15:42.833Z,22.13
2016-08-26T05:16:42.788Z,22.02
2016-08-26T05:17:42.785Z,21.91
2016-08-26T05:18:42.800Z,22
2016-08-26T05:19:42.794Z,22.22
2016-08-26T05:20:42.797Z,22.23
2016-08-26T05:21:43.507Z,22.26
2016-08-26T05:22:42.800Z,22.33
2016-08-26T05:23:42.802Z,22.54
2016-08-26T05:24:42.812Z,22.65
2016-08-26T05:25:42.816Z,23.03
2016-08-26T05:26:42.821Z,23.27
2016-08-26T05:27:42.824Z,23.47
2016-08-26T05:28:42.837Z,23.69
2016-08-26T05:29:42.839Z,23.8
2016-08-26T05:30:42.840Z,23.81
2016-08-26T05:31:42.843Z,23.74
2016-08-26T05:32:42.841Z,23.66
2016-08-26T05:33:42.856Z,23.47
2016-08-26T05:34:42.859Z,23.46
2016-08-26T05:35:42.864Z,23.47
2016-08-26T05:36:42.858Z,23.66
2016-08-26T05:37:42.862Z,23.78
2016-08-26T05:38:42.866Z,24.05
2016-08-26T05:39:42.869Z,24.26
2016-08-26T05:40:42.869Z,24.55
2016-08-26T05:41:42.889Z,24.55
2016-08-26T05:42:42.894Z,24.8
2016-08-26T05:43:42.890Z,25.08
2016-08-26T05:44:42.893Z,25.32
2016-08-26T05:45:42.899Z,25.6
2016-08-26T05:46:42.902Z,25.63
2016-08-26T05:47:42.905Z,25.73
2016-08-26T05:48:42.927Z,25.95
2016-08-26T05:49:42.928Z,26.06
2016-08-26T05:50:42.928Z,26.16
2016-08-26T05:51:42.928Z,25.95
2016-08-26T05:52:42.936Z,25.9
2016-08-26T05:53:42.938Z,26.05
2016-08-26T05:54:42.941Z,26.22
2016-08-26T05:55:42.956Z,26.33
2016-08-26T05:56:42.954Z,26.45
2016-08-26T05:57:42.963Z,26.48
2016-08-26T05:58:42.973Z,26.25
2016-08-26T05:59:42.980Z,25.95
2016-08-26T06:00:43.289Z,25.6
2016-08-26T06:01:42.990Z,25.23
2016-08-26T06:02:42.991Z,24.84
2016-08-26T06:03:43.001Z,24.54
2016-08-26T06:04:43.010Z,24.13
2016-08-26T06:05:43.010Z,23.93
2016-08-26T06:06:43.019Z,23.69
2016-08-26T06:07:43.017Z,23.56
2016-08-26T06:08:43.034Z,23.41
2016-08-26T06:09:43.029Z,23.24
2016-08-26T06:10:43.090Z,23.18
2016-08-26T06:11:43.038Z,23.1
2016-08-26T06:12:43.045Z,23.02
2016-08-26T06:13:43.052Z,22.87
2016-08-26T06:14:43.055Z,22.84
2016-08-26T06:15:43.063Z,22.93
2016-08-26T06:16:43.064Z,22.85
2016-08-26T06:17:43.065Z,22.87
2016-08-26T06:18:43.071Z,22.98
2016-08-26T06:19:43.078Z,23.27
2016-08-26T06:20:43.083Z,23.58
2016-08-26T06:21:43.082Z,23.78
2016-08-26T06:22:43.088Z,23.92
2016-08-26T06:23:43.116Z,24.01
2016-08-26T06:24:43.115Z,24.28
2016-08-26T06:25:43.117Z,24.78
2016-08-26T06:26:43.128Z,25.16
2016-08-26T06:27:43.119Z,25.65
2016-08-26T06:28:43.125Z,26.09
2016-08-26T06:29:43.122Z,26.55
2016-08-26T06:30:43.124Z,26.92
2016-08-26T06:31:43.134Z,27.11
2016-08-26T06:32:43.142Z,27.35
2016-08-26T06:33:43.152Z,27.58
2016-08-26T06:34:43.144Z,27.78
2016-08-26T06:35:43.152Z,28.02
2016-08-26T06:36:43.158Z,28.23
2016-08-26T06:37:43.164Z,28.3
2016-08-26T06:38:43.875Z,28.45
2016-08-26T06:39:43.190Z,28.59
2016-08-26T06:40:43.185Z,28.66
2016-08-26T06:41:43.188Z,28.72
2016-08-26T06:42:43.200Z,28.86
2016-08-26T06:43:43.211Z,29.08
2016-08-26T06:44:43.210Z,29.23
2016-08-26T06:45:43.215Z,29.29
2016-08-26T06:46:43.231Z,29.27
2016-08-26T06:47:43.236Z,29.31
2016-08-26T06:48:43.254Z,29.44
2016-08-26T06:49:43.254Z,29.45
2016-08-26T06:50:43.367Z,29.69
2016-08-26T06:51:43.267Z,29.87
2016-08-26T06:52:43.272Z,29.87
2016-08-26T06:53:43.282Z,29.94
2016-08-26T06:54:43.289Z,30.09
2016-08-26T06:55:43.295Z,30.13
2016-08-26T06:56:43.300Z,30.08
2016-08-26T06:57:43.317Z,29.97
2016-08-26T06:58:43.320Z,30.06
2016-08-26T06:59:43.326Z,30.1
2016-08-26T07:00:43.441Z,30.12
2016-08-26T07:01:43.348Z,30.18
2016-08-26T07:02:43.353Z,30.15
2016-08-26T07:03:43.364Z,30.24
2016-08-26T07:04:43.371Z,30.39
2016-08-26T07:05:43.384Z,30.47
2016-08-26T07:06:43.402Z,30.39
2016-08-26T07:07:43.397Z,30.37
2016-08-26T07:08:44.123Z,30.57
2016-08-26T07:09:43.416Z,30.63
2016-08-26T07:10:43.430Z,30.61
2016-08-26T07:11:43.431Z,30.55
2016-08-26T07:12:43.438Z,30.61
2016-08-26T07:13:43.461Z,30.59
2016-08-26T07:14:43.461Z,30.55
2016-08-26T07:15:43.467Z,30.68
2016-08-26T07:16:43.478Z,30.83
2016-08-26T07:17:43.498Z,30.8
2016-08-26T07:18:44.207Z,31.15
2016-08-26T07:19:43.505Z,31.27
2016-08-26T07:20:43.505Z,31.37
2016-08-26T07:21:43.515Z,31.27
2016-08-26T07:22:43.531Z,30.88
2016-08-26T07:23:43.538Z,30.24
2016-08-26T07:24:43.545Z,29.59
2016-08-26T07:25:43.553Z,29.07
2016-08-26T07:26:43.558Z,28.52
2016-08-26T07:27:43.574Z,28.14
2016-08-26T07:28:43.576Z,27.75
2016-08-26T07:29:43.582Z,27.36
2016-08-26T07:30:43.592Z,27.2
2016-08-26T07:31:43.604Z,27.03
2016-08-26T07:32:43.606Z,26.75
2016-08-26T07:33:43.611Z,26.7
2016-08-26T07:34:43.620Z,26.7
2016-08-26T07:35:43.643Z,26.97
2016-08-26T07:36:43.638Z,27.44
2016-08-26T07:37:43.644Z,28.12
2016-08-26T07:38:43.654Z,28.86
2016-08-26T07:39:43.652Z,29.45
2016-08-26T07:40:43.660Z,29.95
2016-08-26T07:41:43.664Z,30.44
2016-08-26T07:42:43.669Z,30.85
2016-08-26T07:43:43.676Z,30.61
2016-08-26T07:44:43.700Z,30.15
2016-08-26T07:45:43.706Z,29.84
2016-08-26T07:46:43.703Z,30.02
2016-08-26T07:47:43.708Z,30.28
2016-08-26T07:48:43.716Z,30.65
2016-08-26T07:49:43.725Z,30.88
2016-08-26T07:50:43.729Z,31
2016-08-26T07:51:43.738Z,31.37
2016-08-26T07:52:43.746Z,31.43
2016-08-26T07:53:43.765Z,31.64
2016-08-26T07:54:43.765Z,31.69
2016-08-26T07:55:43.783Z,31.44
2016-08-26T07:56:43.791Z,31.61
2016-08-26T07:57:43.789Z,31.77
2016-08-26T07:58:43.791Z,31.7
2016-08-26T07:59:43.806Z,31.56
2016-08-26T08:00:43.898Z,31.61
2016-08-26T08:01:43.820Z,31.64
2016-08-26T08:02:43.848Z,31.7
2016-08-26T08:03:43.847Z,31.84
2016-08-26T08:04:43.853Z,32.09
2016-08-26T08:05:43.931Z,32.34
2016-08-26T08:06:43.860Z,32.46
2016-08-26T08:07:43.878Z,32.43
2016-08-26T08:08:43.881Z,32.36
2016-08-26T08:09:43.888Z,32.4
2016-08-26T08:10:43.891Z,32.68
2016-08-26T08:11:43.913Z,32.89
2016-08-26T08:12:43.917Z,33.07
2016-08-26T08:13:43.926Z,33.11
2016-08-26T08:14:43.926Z,33.24
2016-08-26T08:15:43.937Z,33.47
2016-08-26T08:16:43.949Z,33.49
2016-08-26T08:17:43.961Z,33.53
2016-08-26T08:18:43.977Z,33.49
2016-08-26T08:19:43.974Z,33.64
2016-08-26T08:20:43.983Z,33.71
2016-08-26T08:21:43.996Z,33.81
2016-08-26T08:22:44.004Z,33.86
2016-08-26T08:23:44.014Z,33.98
2016-08-26T08:24:44.035Z,34.08
2016-08-26T08:25:44.109Z,34.14
2016-08-26T08:26:44.045Z,34.2
2016-08-26T08:27:44.051Z,34.35
2016-08-26T08:28:44.093Z,34.36
2016-08-26T08:29:44.075Z,34.38
2016-08-26T08:30:44.090Z,34.3
2016-08-26T08:31:44.093Z,34.27
2016-08-26T08:32:44.107Z,34.42
2016-08-26T08:33:44.110Z,34.48
2016-08-26T08:34:44.123Z,34.57
2016-08-26T08:35:44.148Z,34.47
2016-08-26T08:36:44.162Z,34.21
2016-08-26T08:37:44.155Z,33.58
2016-08-26T08:38:44.874Z,33
2016-08-26T08:39:44.891Z,32.36
2016-08-26T08:40:44.192Z,31.8
2016-08-26T08:41:44.197Z,31.29
2016-08-26T08:42:44.223Z,30.94
2016-08-26T08:43:44.218Z,30.63
2016-08-26T08:44:44.236Z,30.34
2016-08-26T08:45:44.249Z,30.1
2016-08-26T08:46:44.250Z,29.91
2016-08-26T08:47:44.262Z,29.71
2016-08-26T08:48:44.274Z,29.51
2016-08-26T08:49:44.981Z,29.49
2016-08-26T08:50:44.294Z,29.44
2016-08-26T08:51:44.295Z,29.34
2016-08-26T08:52:44.298Z,29.27
2016-08-26T08:53:44.320Z,29.19
2016-08-26T08:54:44.329Z,29.16
2016-08-26T08:55:44.331Z,29.2
2016-08-26T08:56:44.326Z,29.08
2016-08-26T08:57:44.348Z,29.19
2016-08-26T08:58:44.343Z,29.12
2016-08-26T08:59:44.354Z,29.13
2016-08-26T09:00:44.518Z,29.22
2016-08-26T09:01:44.381Z,29.1
2016-08-26T09:02:44.384Z,29.14
2016-08-26T09:03:44.384Z,29.22
2016-08-26T09:04:44.386Z,29.31
2016-08-26T09:05:44.403Z,29.36
2016-08-26T09:06:44.401Z,29.49
2016-08-26T09:07:44.412Z,29.53
2016-08-26T09:08:44.419Z,29.59
2016-08-26T09:09:44.421Z,29.72
2016-08-26T09:10:44.433Z,29.73
2016-08-26T09:11:44.433Z,29.73
2016-08-26T09:12:44.445Z,29.65
2016-08-26T09:13:44.463Z,29.68
2016-08-26T09:14:44.461Z,29.54
2016-08-26T09:15:44.470Z,29.5
2016-08-26T09:16:44.469Z,29.47
2016-08-26T09:17:44.476Z,29.47
2016-08-26T09:18:44.489Z,29.68
2016-08-26T09:19:44.494Z,29.68
2016-08-26T09:20:44.512Z,29.6
2016-08-26T09:21:44.501Z,29.57
2016-08-26T09:22:44.508Z,29.71
2016-08-26T09:23:44.516Z,29.76
2016-08-26T09:24:44.526Z,29.75
2016-08-26T09:25:44.533Z,29.79
2016-08-26T09:26:44.535Z,29.86
2016-08-26T09:27:44.544Z,29.82
2016-08-26T09:28:44.548Z,29.76
2016-08-26T09:29:44.553Z,29.73
2016-08-26T09:30:44.565Z,29.63
2016-08-26T09:31:44.568Z,29.51
2016-08-26T09:32:44.573Z,29.66
2016-08-26T09:33:44.580Z,29.63
2016-08-26T09:34:44.601Z,29.63
2016-08-26T09:35:44.602Z,29.72
2016-08-26T09:36:44.608Z,29.82
2016-08-26T09:37:44.612Z,29.98
2016-08-26T09:38:44.614Z,29.97
2016-08-26T09:39:44.620Z,29.97
2016-08-26T09:40:44.633Z,30.08
2016-08-26T09:41:44.635Z,30.06
2016-08-26T09:42:44.638Z,29.97
2016-08-26T09:43:44.647Z,30.06
2016-08-26T09:44:44.649Z,29.94
2016-08-26T09:45:44.694Z,30.02
2016-08-26T09:46:44.694Z,30.03
2016-08-26T09:47:44.687Z,30
2016-08-26T09:48:44.696Z,30.15
2016-08-26T09:49:44.704Z,30.1
2016-08-26T09:50:44.713Z,30.09
2016-08-26T09:51:44.711Z,30.18
2016-08-26T09:52:44.704Z,30.13
2016-08-26T09:53:44.715Z,30.15
2016-08-26T09:54:44.717Z,30.27
2016-08-26T09:55:44.731Z,30.25
2016-08-26T09:56:44.732Z,30.32
2016-08-26T09:57:44.756Z,30.3
2016-08-26T09:58:44.756Z,30.39
2016-08-26T09:59:44.760Z,30.43
2016-08-26T10:00:44.907Z,30.44
2016-08-26T10:01:44.769Z,30.5
2016-08-26T10:02:44.773Z,30.51
2016-08-26T10:03:44.774Z,30.61
2016-08-26T10:04:44.779Z,30.54
2016-08-26T10:05:44.801Z,30.61
2016-08-26T10:06:44.806Z,30.62
2016-08-26T10:07:44.801Z,30.63
2016-08-26T10:08:44.810Z,30.68
2016-08-26T10:09:44.828Z,30.72
2016-08-26T10:10:44.830Z,30.72
2016-08-26T10:11:44.833Z,30.83
2016-08-26T10:12:44.839Z,30.85
2016-08-26T10:13:45.560Z,30.87
2016-08-26T10:14:45.558Z,30.87
2016-08-26T10:15:44.864Z,30.75
2016-08-26T10:16:44.863Z,30.68
2016-08-26T10:17:44.870Z,30.73
2016-08-26T10:18:44.890Z,30.73
2016-08-26T10:19:44.889Z,30.77
2016-08-26T10:20:44.904Z,30.85
2016-08-26T10:21:44.901Z,30.92
2016-08-26T10:22:44.910Z,30.92
2016-08-26T10:23:44.922Z,30.96
2016-08-26T10:24:44.916Z,30.9
2016-08-26T10:25:44.932Z,30.91
2016-08-26T10:26:44.937Z,30.81
2016-08-26T10:27:44.937Z,30.88
2016-08-26T10:28:44.946Z,30.9
2016-08-26T10:29:44.957Z,30.83
2016-08-26T10:30:44.975Z,30.91
2016-08-26T10:31:44.975Z,30.92
2016-08-26T10:32:44.974Z,30.96
2016-08-26T10:33:44.988Z,31
2016-08-26T10:34:45.706Z,31
2016-08-26T10:35:45.016Z,31.02
2016-08-26T10:36:45.003Z,30.96
2016-08-26T10:37:45.008Z,30.85
2016-08-26T10:38:45.029Z,30.9
2016-08-26T10:39:45.026Z,30.84
2016-08-26T10:40:45.033Z,30.91
2016-08-26T10:41:45.035Z,30.96
2016-08-26T10:42:45.050Z,31.06
2016-08-26T10:43:45.067Z,31.12
2016-08-26T10:44:45.062Z,31.1
2016-08-26T10:45:45.064Z,31.21
2016-08-26T10:46:45.121Z,31.27
2016-08-26T10:47:45.079Z,31.21
2016-08-26T10:48:45.083Z,31.33
2016-08-26T10:49:45.090Z,31.36
2016-08-26T10:50:45.105Z,31.36
2016-08-26T10:51:45.106Z,31.4
2016-08-26T10:52:45.119Z,31.47
2016-08-26T10:53:45.120Z,31.52
2016-08-26T10:54:45.123Z,31.55
2016-08-26T10:55:45.143Z,31.59
2016-08-26T10:56:45.152Z,31.47
2016-08-26T10:57:45.143Z,31.44
2016-08-26T10:58:45.161Z,31.46
2016-08-26T10:59:45.159Z,31.44
2016-08-26T11:00:45.569Z,31.46
2016-08-26T11:01:45.189Z,31.43
2016-08-26T11:02:45.198Z,31.4
2016-08-26T11:03:45.182Z,31.42
2016-08-26T11:04:45.191Z,31.44
2016-08-26T11:05:45.197Z,31.46
2016-08-26T11:06:45.206Z,31.56
2016-08-26T11:07:45.215Z,31.61
2016-08-26T11:08:45.217Z,31.64
2016-08-26T11:09:45.240Z,31.58
2016-08-26T11:10:45.238Z,31.64
2016-08-26T11:11:45.246Z,31.66
2016-08-26T11:12:45.247Z,31.84
2016-08-26T11:13:45.257Z,31.78
2016-08-26T11:14:45.260Z,31.96
2016-08-26T11:15:45.269Z,31.96
2016-08-26T11:16:45.274Z,31.93
2016-08-26T11:17:45.280Z,32.03
2016-08-26T11:18:45.301Z,32.09
2016-08-26T11:19:45.301Z,32.11
2016-08-26T11:20:45.309Z,32.11
2016-08-26T11:21:45.326Z,32.12
2016-08-26T11:22:45.318Z,32.11
2016-08-26T11:23:45.328Z,32.09
2016-08-26T11:24:45.331Z,32.16
2016-08-26T11:25:45.348Z,32.18
2016-08-26T11:26:45.349Z,32.14
2016-08-26T11:27:45.363Z,32.22
2016-08-26T11:28:45.375Z,32.15
2016-08-26T11:29:45.377Z,32.16
2016-08-26T11:30:45.383Z,32.22
2016-08-26T11:31:45.383Z,32.18
2016-08-26T11:32:45.387Z,32.19
2016-08-26T11:33:46.119Z,32.09
2016-08-26T11:34:45.412Z,32.11
2016-08-26T11:35:45.410Z,32.12
2016-08-26T11:36:45.419Z,32.15
2016-08-26T11:37:45.456Z,32.18
2016-08-26T11:38:45.437Z,32.19
2016-08-26T11:39:45.491Z,32.21
2016-08-26T11:40:45.504Z,32.19
2016-08-26T11:41:45.458Z,32.22
2016-08-26T11:42:45.466Z,32.33
2016-08-26T11:43:45.469Z,32.34
2016-08-26T11:44:46.192Z,32.3
2016-08-26T11:45:45.485Z,32.46
2016-08-26T11:46:45.490Z,32.63
2016-08-26T11:47:45.501Z,32.52
2016-08-26T11:48:45.523Z,32.56
2016-08-26T11:49:45.520Z,32.67
2016-08-26T11:50:45.521Z,32.68
2016-08-26T11:51:45.532Z,32.58
2016-08-26T11:52:45.546Z,32.71
2016-08-26T11:53:45.547Z,32.82
2016-08-26T11:54:45.551Z,32.8
2016-08-26T11:55:45.648Z,32.58
2016-08-26T11:56:45.565Z,32.56
2016-08-26T11:57:45.573Z,32.48
2016-08-26T11:58:45.581Z,32.36
2016-08-26T11:59:45.588Z,32.41
2016-08-26T12:00:45.661Z,32.41
2016-08-26T12:01:45.603Z,32.36
2016-08-26T12:02:45.607Z,32.48
2016-08-26T12:03:45.629Z,32.4
2016-08-26T12:04:45.633Z,32.31
2016-08-26T12:05:45.630Z,32.34
2016-08-26T12:06:45.652Z,32.37
2016-08-26T12:07:45.656Z,32.37
2016-08-26T12:08:45.660Z,32.29
2016-08-26T12:09:45.674Z,32.33
2016-08-26T12:10:45.673Z,32.38
2016-08-26T12:11:45.674Z,32.43
2016-08-26T12:12:45.695Z,32.52
2016-08-26T12:13:45.699Z,32.59
2016-08-26T12:14:45.705Z,32.64
2016-08-26T12:15:45.708Z,32.78
2016-08-26T12:16:45.725Z,32.83
2016-08-26T12:17:45.782Z,32.87
2016-08-26T12:18:45.781Z,32.89
2016-08-26T12:19:45.751Z,32.97
2016-08-26T12:20:45.747Z,33.05
2016-08-26T12:21:45.766Z,33.01
2016-08-26T12:22:45.761Z,33.01
2016-08-26T12:23:45.762Z,33.05
2016-08-26T12:24:45.778Z,33
2016-08-26T12:25:45.784Z,33.02
2016-08-26T12:26:45.785Z,33.01
2016-08-26T12:27:45.817Z,33.05
2016-08-26T12:28:46.522Z,33.12
2016-08-26T12:29:45.819Z,33.09
2016-08-26T12:30:45.827Z,33
2016-08-26T12:31:45.834Z,33.07
2016-08-26T12:32:45.843Z,32.96
2016-08-26T12:33:45.842Z,32.86
2016-08-26T12:34:45.854Z,32.9
2016-08-26T12:35:46.569Z,32.83
2016-08-26T12:36:45.872Z,32.85
2016-08-26T12:37:46.577Z,32.77
2016-08-26T12:38:45.882Z,32.58
2016-08-26T12:39:45.885Z,32.63
2016-08-26T12:40:45.897Z,32.59
2016-08-26T12:41:45.899Z,32.55
2016-08-26T12:42:45.926Z,32.65
2016-08-26T12:43:45.931Z,32.75
2016-08-26T12:44:45.932Z,32.85
2016-08-26T12:45:45.932Z,32.86
2016-08-26T12:46:45.953Z,32.95
2016-08-26T12:47:45.964Z,33.01
2016-08-26T12:48:45.967Z,33.07
2016-08-26T12:49:45.966Z,33.04
2016-08-26T12:50:45.967Z,33.17
2016-08-26T12:51:45.975Z,33.15
2016-08-26T12:52:45.986Z,33.31
2016-08-26T12:53:45.987Z,33.36
2016-08-26T12:54:46.710Z,33.24
2016-08-26T12:55:46.041Z,33.22